Time,TemperatureF,DewpointF,PressureIn,WindDirection,WindDirectionDegrees,WindSpeedMPH,WindSpeedGustMPH,Humidity,HourlyPrecipIn,Conditions,Clouds,dailyrainin,SoftwareType,DateUTC
2014-01-01 00:02:00,9.0,5.4,30.31,ENE,65,5.0,5.0,85,0.00,,,0.00,Wunderground v.1.15,2014-01-01 06:02:00,
2014-01-01 00:08:00,9.0,5.4,30.31,ENE,65,4.0,7.0,85,0.00,,,0.00,Wunderground v.1.15,2014-01-01 06:08:00,
2014-01-01 00:13:00,9.0,5.4,30.31,East,83,3.0,4.0,85,0.00,,,0.00,Wunderground v.1.15,2014-01-01 06:13:00,
2014-01-01 00:15:00,9.0,5.4,30.31,ENE,65,2.0,4.0,85,0.00,,,0.00,Wunderground v.1.15,2014-01-01 06:15:00,
2014-01-01 00:20:00,9.0,5.4,30.31,NE,54,3.0,5.0,85,0.00,,,0.00,Wunderground v.1.15,2014-01-01 06:20:00,
2014-01-01 00:25:00,9.0,5.4,30.31,East,84,5.0,5.0,85,0.00,,,0.00,Wunderground v.1.15,2014-01-01 06:25:00,
2014-01-01 15:44:00,10.7,6.8,30.31,ENE,59,2.0,2.0,84,0.00,,,0.00,Wunderground v.1.15,2014-01-01 21:44:00,
2014-01-01 15:45:00,10.7,6.8,30.31,ENE,58,1.0,2.0,84,0.00,,,0.00,Wunderground v.1.15,2014-01-01 21:45:00,
2014-01-01 15:51:00,10.6,6.7,30.31,NNE,30,1.0,10.0,84,0.00,,,0.00,Wunderground v.1.15,2014-01-01 21:51:00,
2014-01-01 15:56:00,10.6,6.7,30.31,NNE,32,3.0,9.0,84,0.00,,,0.00,Wunderground v.1.15,2014-01-01 21:56:00,
2014-01-01 16:03:00,10.3,6.2,30.31,NE,52,1.0,1.0,83,0.00,,,0.00,Wunderground v.1.15,2014-01-01 22:03:00,
2014-01-01 16:08:00,10.2,6.3,30.31,NE,56,1.0,5.0,84,0.00,,,0.00,Wunderground v.1.15,2014-01-01 22:08:00,
2014-01-01 16:14:00,10.0,5.9,30.31,NE,35,3.0,3.0,83,0.00,,,0.00,Wunderground v.1.15,2014-01-01 22:14:00,
2014-01-01 16:19:00,9.8,5.7,30.31,NNE,19,5.0,8.0,83,0.00,,,0.00,Wunderground v.1.15,2014-01-01 22:19:00,
2014-01-01 16:24:00,9.6,5.5,30.31,NNE,15,8.0,8.0,83,0.00,,,0.00,Wunderground v.1.15,2014-01-01 22:24:00,
2014-01-01 16:29:00,9.5,5.4,30.31,NNE,30,7.0,10.0,83,0.00,,,0.00,Wunderground v.1.15,2014-01-01 22:29:00,
2014-01-01 16:34:00,9.4,5.3,30.31,NNE,26,4.0,7.0,83,0.00,,,0.00,Wunderground v.1.15,2014-01-01 22:34:00,
2014-01-01 16:39:00,9.4,5.3,30.31,NNE,22,0.0,7.0,83,0.00,,,0.00,Wunderground v.1.15,2014-01-01 22:39:00,
2014-01-01 16:44:00,9.3,5.2,30.31,ENE,64,3.0,4.0,83,0.00,,,0.00,Wunderground v.1.15,2014-01-01 22:44:00,
2014-01-01 16:49:00,9.3,5.2,30.31,NNE,24,4.0,15.0,83,0.00,,,0.00,Wunderground v.1.15,2014-01-01 22:49:00,
2014-01-01 16:54:00,9.3,5.2,30.31,NNE,18,6.0,11.0,83,0.00,,,0.00,Wunderground v.1.15,2014-01-01 22:54:00,
2014-01-01 16:59:00,9.2,5.1,30.31,North,360,6.0,12.0,83,0.00,,,0.00,Wunderground v.1.15,2014-01-01 22:59:00,
2014-01-01 17:04:00,9.2,5.1,30.32,NNE,15,12.0,12.0,83,0.00,,,0.00,Wunderground v.1.15,2014-01-01 23:04:00,
2014-01-01 17:09:00,9.2,5.1,30.32,NNE,24,9.0,13.0,83,0.00,,,0.00,Wunderground v.1.15,2014-01-01 23:09:00,
2014-01-01 17:14:00,9.2,5.1,30.32,NNE,15,12.0,13.0,83,0.00,,,0.00,Wunderground v.1.15,2014-01-01 23:14:00,
2014-01-01 17:19:00,9.3,5.2,30.32,NNE,15,10.0,14.0,83,0.00,,,0.00,Wunderground v.1.15,2014-01-01 23:19:00,
2014-01-01 17:24:00,9.4,5.3,30.33,NNE,16,10.0,12.0,83,0.00,,,0.00,Wunderground v.1.15,2014-01-01 23:24:00,
2014-01-01 17:29:00,9.5,5.4,30.33,NNE,22,5.0,13.0,83,0.00,,,0.00,Wunderground v.1.15,2014-01-01 23:29:00,
2014-01-01 17:34:00,9.5,5.4,30.33,North,5,12.0,15.0,83,0.00,,,0.00,Wunderground v.1.15,2014-01-01 23:34:00,
2014-01-01 17:40:00,9.6,5.5,30.33,North,351,4.0,15.0,83,0.00,,,0.00,Wunderground v.1.15,2014-01-01 23:40:00,
2014-01-01 17:45:00,9.6,5.5,30.33,NE,40,7.0,12.0,83,0.00,,,0.00,Wunderground v.1.15,2014-01-01 23:45:00,
2014-01-01 17:50:00,9.6,5.5,30.33,NNE,13,14.0,17.0,83,0.00,,,0.00,Wunderground v.1.15,2014-01-01 23:50:00,
2014-01-01 17:55:00,9.5,5.4,30.34,North,5,11.0,15.0,83,0.00,,,0.00,Wunderground v.1.15,2014-01-01 23:55:00,
2014-01-01 18:00:00,9.4,5.5,30.34,NNE,14,11.0,14.0,84,0.00,,,0.00,Wunderground v.1.15,2014-01-02 00:00:00,
2014-01-01 18:05:00,9.3,5.4,30.34,NNE,19,13.0,16.0,84,0.00,,,0.00,Wunderground v.1.15,2014-01-02 00:05:00,
2014-01-01 18:10:00,9.3,5.4,30.34,NNE,16,11.0,17.0,84,0.00,,,0.00,Wunderground v.1.15,2014-01-02 00:10:00,
2014-01-01 18:15:00,9.2,5.3,30.34,NNE,14,14.0,19.0,84,0.00,,,0.00,Wunderground v.1.15,2014-01-02 00:15:00,
2014-01-01 18:20:00,9.1,5.2,30.34,NNE,26,10.0,19.0,84,0.00,,,0.00,Wunderground v.1.15,2014-01-02 00:20:00,
2014-01-01 18:25:00,9.1,5.2,30.34,North,360,12.0,17.0,84,0.00,,,0.00,Wunderground v.1.15,2014-01-02 00:25:00,
2014-01-01 18:30:00,9.1,5.2,30.35,North,9,15.0,17.0,84,0.00,,,0.00,Wunderground v.1.15,2014-01-02 00:30:00,
2014-01-01 18:35:00,9.1,5.2,30.35,NNE,28,6.0,16.0,84,0.00,,,0.00,Wunderground v.1.15,2014-01-02 00:35:00,
2014-01-01 18:40:00,9.1,5.2,30.35,ENE,59,8.0,16.0,84,0.00,,,0.00,Wunderground v.1.15,2014-01-02 00:40:00,
2014-01-01 19:16:00,9.1,5.0,30.36,ENE,59,2.0,10.0,83,0.00,,,0.00,Wunderground v.1.15,2014-01-02 01:16:00,
2014-01-01 19:33:00,9.2,5.1,30.35,North,5,8.0,8.0,83,0.00,,,0.00,Wunderground v.1.15,2014-01-02 01:33:00,
2014-01-01 19:38:00,9.1,5.0,30.35,NNE,15,2.0,8.0,83,0.00,,,0.00,Wunderground v.1.15,2014-01-02 01:38:00,
2014-01-01 19:43:00,9.2,5.1,30.36,NNE,28,4.0,4.0,83,0.00,,,0.00,Wunderground v.1.15,2014-01-02 01:43:00,
2014-01-01 19:48:00,9.3,5.2,30.36,North,5,4.0,10.0,83,0.00,,,0.00,Wunderground v.1.15,2014-01-02 01:48:00,
2014-01-01 19:53:00,9.3,5.2,30.36,NNE,24,2.0,5.0,83,0.00,,,0.00,Wunderground v.1.15,2014-01-02 01:53:00,
2014-01-01 19:58:00,9.2,5.1,30.36,NE,52,3.0,9.0,83,0.00,,,0.00,Wunderground v.1.15,2014-01-02 01:58:00,
2014-01-01 20:04:00,9.3,5.2,30.36,NE,43,1.0,1.0,83,0.00,,,0.00,Wunderground v.1.15,2014-01-02 02:04:00,
2014-01-01 20:10:00,9.3,5.2,30.35,NNE,22,11.0,11.0,83,0.00,,,0.00,Wunderground v.1.15,2014-01-02 02:10:00,
2014-01-01 20:15:00,9.3,5.2,30.36,NNE,19,6.0,8.0,83,0.00,,,0.00,Wunderground v.1.15,2014-01-02 02:15:00,
2014-01-01 20:20:00,9.3,4.9,30.36,North,355,8.0,10.0,82,0.00,,,0.00,Wunderground v.1.15,2014-01-02 02:20:00,
2014-01-01 20:25:00,9.3,4.9,30.36,NNE,23,5.0,7.0,82,0.00,,,0.00,Wunderground v.1.15,2014-01-02 02:25:00,
2014-01-01 20:30:00,9.2,4.8,30.36,North,11,10.0,10.0,82,0.00,,,0.00,Wunderground v.1.15,2014-01-02 02:30:00,
2014-01-01 20:35:00,9.2,4.8,30.37,NNE,19,6.0,11.0,82,0.00,,,0.00,Wunderground v.1.15,2014-01-02 02:35:00,
2014-01-01 20:40:00,9.2,4.8,30.37,North,9,5.0,13.0,82,0.00,,,0.00,Wunderground v.1.15,2014-01-02 02:40:00,
2014-01-01 20:45:00,9.2,5.1,30.37,North,5,7.0,9.0,83,0.00,,,0.00,Wunderground v.1.15,2014-01-02 02:45:00,
2014-01-01 20:50:00,9.1,5.0,30.37,NNE,19,10.0,15.0,83,0.00,,,0.00,Wunderground v.1.15,2014-01-02 02:50:00,
2014-01-01 20:55:00,8.9,4.8,30.37,NNE,15,13.0,13.0,83,0.00,,,0.00,Wunderground v.1.15,2014-01-02 02:55:00,
2014-01-01 21:05:00,8.8,4.7,30.37,NNE,23,4.0,4.0,83,0.00,,,0.00,Wunderground v.1.15,2014-01-02 03:05:00,
2014-01-01 21:10:00,8.7,4.6,30.37,NNE,12,11.0,12.0,83,0.00,,,0.00,Wunderground v.1.15,2014-01-02 03:10:00,
2014-01-01 21:15:00,8.7,4.6,30.36,North,10,12.0,14.0,83,0.00,,,0.00,Wunderground v.1.15,2014-01-02 03:15:00,
2014-01-01 21:20:00,8.7,4.6,30.37,NNE,23,7.0,14.0,83,0.00,,,0.00,Wunderground v.1.15,2014-01-02 03:20:00,
2014-01-01 21:25:00,8.7,4.6,30.36,NE,36,7.0,11.0,83,0.00,,,0.00,Wunderground v.1.15,2014-01-02 03:25:00,
2014-01-01 21:30:00,8.7,4.6,30.36,NNE,22,4.0,11.0,83,0.00,,,0.00,Wunderground v.1.15,2014-01-02 03:30:00,
2014-01-01 21:35:00,8.7,4.6,30.36,North,5,9.0,11.0,83,0.00,,,0.00,Wunderground v.1.15,2014-01-02 03:35:00,
2014-01-01 21:40:00,8.7,4.6,30.37,North,5,9.0,14.0,83,0.00,,,0.00,Wunderground v.1.15,2014-01-02 03:40:00,
2014-01-01 21:45:00,8.7,4.6,30.37,NNE,29,11.0,15.0,83,0.00,,,0.00,Wunderground v.1.15,2014-01-02 03:45:00,
2014-01-01 21:53:00,8.6,4.5,30.36,NNE,15,7.0,11.0,83,0.00,,,0.00,Wunderground v.1.15,2014-01-02 03:53:00,
2014-01-01 21:58:00,8.6,4.5,30.36,North,355,11.0,16.0,83,0.00,,,0.00,Wunderground v.1.15,2014-01-02 03:58:00,
2014-01-01 22:04:00,8.6,4.8,30.36,North,360,13.0,13.0,84,0.00,,,0.00,Wunderground v.1.15,2014-01-02 04:04:00,
2014-01-01 22:09:00,8.6,4.8,30.36,North,5,14.0,14.0,84,0.00,,,0.00,Wunderground v.1.15,2014-01-02 04:09:00,
2014-01-01 22:14:00,8.5,4.7,30.36,NNE,13,16.0,17.0,84,0.00,,,0.00,Wunderground v.1.15,2014-01-02 04:14:00,
2014-01-01 22:19:00,8.4,4.6,30.36,North,10,15.0,19.0,84,0.00,,,0.00,Wunderground v.1.15,2014-01-02 04:19:00,
2014-01-01 22:24:00,8.4,4.6,30.36,North,5,17.0,18.0,84,0.00,,,0.00,Wunderground v.1.15,2014-01-02 04:24:00,
2014-01-01 22:29:00,8.3,4.2,30.36,North,355,17.0,18.0,83,0.00,,,0.00,Wunderground v.1.15,2014-01-02 04:29:00,
2014-01-01 22:34:00,8.4,4.3,30.37,North,10,10.0,16.0,83,0.00,,,0.00,Wunderground v.1.15,2014-01-02 04:34:00,
2014-01-01 22:39:00,8.5,4.4,30.36,NNE,12,10.0,17.0,83,0.00,,,0.00,Wunderground v.1.15,2014-01-02 04:39:00,
2014-01-01 22:44:00,8.4,4.3,30.36,North,9,12.0,17.0,83,0.00,,,0.00,Wunderground v.1.15,2014-01-02 04:44:00,
2014-01-01 22:49:00,8.4,4.3,30.36,North,360,16.0,17.0,83,0.00,,,0.00,Wunderground v.1.15,2014-01-02 04:49:00,
2014-01-01 22:55:00,8.4,4.0,30.36,North,5,13.0,16.0,82,0.00,,,0.00,Wunderground v.1.15,2014-01-02 04:55:00,
2014-01-01 23:00:00,8.4,4.3,30.36,North,5,14.0,14.0,83,0.00,,,0.00,Wunderground v.1.15,2014-01-02 05:00:00,
2014-01-01 23:01:00,8.4,4.3,30.36,North,5,12.0,16.0,83,0.00,,,0.00,Wunderground v.1.15,2014-01-02 05:01:00,
2014-01-01 23:04:00,8.4,4.3,30.36,NNE,12,12.0,12.0,83,0.00,,,0.00,Wunderground v.1.15,2014-01-02 05:04:00,
2014-01-01 23:05:00,8.4,4.3,30.36,North,350,13.0,15.0,83,0.00,,,0.00,Wunderground v.1.15,2014-01-02 05:05:00,
2014-01-01 23:10:00,8.3,4.2,30.36,North,5,11.0,16.0,83,0.00,,,0.00,Wunderground v.1.15,2014-01-02 05:10:00,
2014-01-01 23:15:00,8.3,4.2,30.36,North,5,14.0,16.0,83,0.00,,,0.00,Wunderground v.1.15,2014-01-02 05:15:00,
2014-01-01 23:20:00,8.2,3.8,30.36,NNE,19,13.0,18.0,82,0.00,,,0.00,Wunderground v.1.15,2014-01-02 05:20:00,
2014-01-01 23:25:00,8.2,3.8,30.36,North,360,14.0,16.0,82,0.00,,,0.00,Wunderground v.1.15,2014-01-02 05:25:00,
2014-01-01 23:30:00,8.1,3.7,30.35,North,9,13.0,16.0,82,0.00,,,0.00,Wunderground v.1.15,2014-01-02 05:30:00,
2014-01-01 23:35:00,8.1,3.7,30.35,North,5,11.0,15.0,82,0.00,,,0.00,Wunderground v.1.15,2014-01-02 05:35:00,
2014-01-01 23:40:00,8.0,3.6,30.35,North,5,14.0,15.0,82,0.00,,,0.00,Wunderground v.1.15,2014-01-02 05:40:00,
2014-01-01 23:45:00,8.0,3.6,30.35,North,5,13.0,15.0,82,0.00,,,0.00,Wunderground v.1.15,2014-01-02 05:45:00,
2014-01-01 23:50:00,8.0,3.6,30.35,North,355,14.0,15.0,82,0.00,,,0.00,Wunderground v.1.15,2014-01-02 05:50:00,
2014-01-01 23:55:00,7.9,3.3,30.35,North,360,11.0,14.0,81,0.00,,,0.00,Wunderground v.1.15,2014-01-02 05:55:00,